sensor_id;sensor_type;location;lat;lon;timestamp;temperature;humidity
69944;DHT22;57257;48.408;-4.498;2022-09-27T00:00:42;15.89;64.84
69944;DHT22;57257;48.408;-4.498;2022-09-27T00:03:09;15.89;64.96
69944;DHT22;57257;48.408;-4.498;2022-09-27T00:05:34;15.90;65.02
69944;DHT22;57257;48.408;-4.498;2022-09-27T00:08:00;15.87;65.07
69944;DHT22;57257;48.408;-4.498;2022-09-27T00:10:25;15.89;65.07
69944;DHT22;57257;48.408;-4.498;2022-09-27T00:12:51;15.89;65.12
69944;DHT22;57257;48.408;-4.498;2022-09-27T00:15:17;15.89;65.15
69944;DHT22;57257;48.408;-4.498;2022-09-27T00:17:43;15.84;65.08
69944;DHT22;57257;48.408;-4.498;2022-09-27T00:20:09;15.84;65.25
69944;DHT22;57257;48.408;-4.498;2022-09-27T00:22:34;15.79;65.45
69944;DHT22;57257;48.408;-4.498;2022-09-27T00:25:00;15.74;65.48
69944;DHT22;57257;48.408;-4.498;2022-09-27T00:27:26;15.73;65.42
69944;DHT22;57257;48.408;-4.498;2022-09-27T00:29:52;15.71;65.51
69944;DHT22;57257;48.408;-4.498;2022-09-27T00:32:18;15.70;65.63
69944;DHT22;57257;48.408;-4.498;2022-09-27T00:34:43;15.64;65.83
69944;DHT22;57257;48.408;-4.498;2022-09-27T00:37:09;15.59;65.87
69944;DHT22;57257;48.408;-4.498;2022-09-27T00:39:36;15.53;65.93
69944;DHT22;57257;48.408;-4.498;2022-09-27T00:42:05;15.43;66.24
69944;DHT22;57257;48.408;-4.498;2022-09-27T00:49:50;15.36;66.68
69944;DHT22;57257;48.408;-4.498;2022-09-27T00:54:54;15.33;66.76
69944;DHT22;57257;48.408;-4.498;2022-09-27T00:57:22;15.33;66.79
69944;DHT22;57257;48.408;-4.498;2022-09-27T00:59:58;15.32;66.86
69944;DHT22;57257;48.408;-4.498;2022-09-27T01:02:25;15.32;66.99
69944;DHT22;57257;48.408;-4.498;2022-09-27T01:04:51;15.32;67.03
69944;DHT22;57257;48.408;-4.498;2022-09-27T01:07:17;15.33;66.98
69944;DHT22;57257;48.408;-4.498;2022-09-27T01:09:43;15.35;66.92
69944;DHT22;57257;48.408;-4.498;2022-09-27T01:13:04;15.36;66.91
69944;DHT22;57257;48.408;-4.498;2022-09-27T01:15:39;15.38;67.03
69944;DHT22;57257;48.408;-4.498;2022-09-27T01:29:48;15.50;66.74
69944;DHT22;57257;48.408;-4.498;2022-09-27T01:32:36;15.54;66.62
69944;DHT22;57257;48.408;-4.498;2022-09-27T01:35:27;15.56;66.60
69944;DHT22;57257;48.408;-4.498;2022-09-27T01:38:16;15.60;66.58
69944;DHT22;57257;48.408;-4.498;2022-09-27T01:44:22;15.69;66.44
69944;DHT22;57257;48.408;-4.498;2022-09-27T01:46:51;15.67;66.45
69944;DHT22;57257;48.408;-4.498;2022-09-27T01:49:25;15.70;66.41
69944;DHT22;57257;48.408;-4.498;2022-09-27T01:51:56;15.71;66.21
69944;DHT22;57257;48.408;-4.498;2022-09-27T01:54:27;15.73;66.19
69944;DHT22;57257;48.408;-4.498;2022-09-27T01:56:56;15.74;66.07
69944;DHT22;57257;48.408;-4.498;2022-09-27T01:59:30;15.77;65.98
69944;DHT22;57257;48.408;-4.498;2022-09-27T02:02:01;15.76;65.98
69944;DHT22;57257;48.408;-4.498;2022-09-27T02:04:31;15.77;65.94
69944;DHT22;57257;48.408;-4.498;2022-09-27T02:07:32;15.80;65.93
69944;DHT22;57257;48.408;-4.498;2022-09-27T02:10:04;15.82;65.81
69944;DHT22;57257;48.408;-4.498;2022-09-27T02:12:32;15.80;65.81
69944;DHT22;57257;48.408;-4.498;2022-09-27T02:15:05;15.82;65.75
69944;DHT22;57257;48.408;-4.498;2022-09-27T02:22:56;15.83;65.74
69944;DHT22;57257;48.408;-4.498;2022-09-27T02:25:46;15.83;65.57
69944;DHT22;57257;48.408;-4.498;2022-09-27T02:28:27;15.80;65.55
69944;DHT22;57257;48.408;-4.498;2022-09-27T02:30:55;15.82;65.52
69944;DHT22;57257;48.408;-4.498;2022-09-27T02:33:27;15.82;65.50
69944;DHT22;57257;48.408;-4.498;2022-09-27T02:35:54;15.82;65.46
69944;DHT22;57257;48.408;-4.498;2022-09-27T02:38:20;15.82;65.36
69944;DHT22;57257;48.408;-4.498;2022-09-27T02:40:46;15.84;65.29
69944;DHT22;57257;48.408;-4.498;2022-09-27T02:43:14;15.84;65.22
69944;DHT22;57257;48.408;-4.498;2022-09-27T02:51:29;15.86;65.05
69944;DHT22;57257;48.408;-4.498;2022-09-27T02:54:17;15.87;64.94
69944;DHT22;57257;48.408;-4.498;2022-09-27T03:05:45;15.89;64.84
69944;DHT22;57257;48.408;-4.498;2022-09-27T03:07:39;15.87;64.73
69944;DHT22;57257;48.408;-4.498;2022-09-27T03:10:05;15.87;64.72
69944;DHT22;57257;48.408;-4.498;2022-09-27T03:12:32;15.84;64.72
69944;DHT22;57257;48.408;-4.498;2022-09-27T03:14:58;15.82;64.81
69944;DHT22;57257;48.408;-4.498;2022-09-27T03:17:25;15.84;64.86
69944;DHT22;57257;48.408;-4.498;2022-09-27T03:19:51;15.83;64.84
69944;DHT22;57257;48.408;-4.498;2022-09-27T03:22:16;15.83;64.85
69944;DHT22;57257;48.408;-4.498;2022-09-27T03:24:42;15.77;64.95
69944;DHT22;57257;48.408;-4.498;2022-09-27T03:27:08;15.76;65.00
69944;DHT22;57257;48.408;-4.498;2022-09-27T03:29:34;15.71;65.06
69944;DHT22;57257;48.408;-4.498;2022-09-27T03:32:00;15.70;65.05
69944;DHT22;57257;48.408;-4.498;2022-09-27T03:34:25;15.67;65.02
69944;DHT22;57257;48.408;-4.498;2022-09-27T03:36:51;15.64;65.03
69944;DHT22;57257;48.408;-4.498;2022-09-27T03:39:16;15.60;65.01
69944;DHT22;57257;48.408;-4.498;2022-09-27T03:41:42;15.57;64.93
69944;DHT22;57257;48.408;-4.498;2022-09-27T03:44:07;15.57;64.87
69944;DHT22;57257;48.408;-4.498;2022-09-27T03:46:33;15.52;64.85
69944;DHT22;57257;48.408;-4.498;2022-09-27T03:48:59;15.50;64.86
69944;DHT22;57257;48.408;-4.498;2022-09-27T03:51:24;15.52;64.87
69944;DHT22;57257;48.408;-4.498;2022-09-27T03:53:50;15.49;64.82
69944;DHT22;57257;48.408;-4.498;2022-09-27T03:56:15;15.47;64.88
69944;DHT22;57257;48.408;-4.498;2022-09-27T03:58:40;15.43;64.95
69944;DHT22;57257;48.408;-4.498;2022-09-27T04:01:06;15.40;64.99
69944;DHT22;57257;48.408;-4.498;2022-09-27T04:03:32;15.38;65.04
69944;DHT22;57257;48.408;-4.498;2022-09-27T04:05:57;15.36;65.20
69944;DHT22;57257;48.408;-4.498;2022-09-27T04:08:24;15.32;65.22
69944;DHT22;57257;48.408;-4.498;2022-09-27T04:10:50;15.30;65.33
69944;DHT22;57257;48.408;-4.498;2022-09-27T04:13:15;15.30;65.30
69944;DHT22;57257;48.408;-4.498;2022-09-27T04:15:41;15.33;65.37
69944;DHT22;57257;48.408;-4.498;2022-09-27T04:18:07;15.30;65.34
69944;DHT22;57257;48.408;-4.498;2022-09-27T04:20:34;15.36;65.35
69944;DHT22;57257;48.408;-4.498;2022-09-27T04:23:00;15.35;65.32
69944;DHT22;57257;48.408;-4.498;2022-09-27T04:25:25;15.39;65.36
69944;DHT22;57257;48.408;-4.498;2022-09-27T04:27:51;15.40;65.30
69944;DHT22;57257;48.408;-4.498;2022-09-27T04:30:19;15.40;65.38
69944;DHT22;57257;48.408;-4.498;2022-09-27T04:32:45;15.40;65.35
69944;DHT22;57257;48.408;-4.498;2022-09-27T04:35:11;15.36;65.30
69944;DHT22;57257;48.408;-4.498;2022-09-27T04:37:56;15.36;65.34
69944;DHT22;57257;48.408;-4.498;2022-09-27T04:40:22;15.35;65.39
69944;DHT22;57257;48.408;-4.498;2022-09-27T04:42:49;15.35;65.44
69944;DHT22;57257;48.408;-4.498;2022-09-27T04:45:14;15.35;65.51
69944;DHT22;57257;48.408;-4.498;2022-09-27T04:47:45;15.35;65.55
69944;DHT22;57257;48.408;-4.498;2022-09-27T04:50:11;15.32;65.65
69944;DHT22;57257;48.408;-4.498;2022-09-27T04:52:37;15.32;65.79
69944;DHT22;57257;48.408;-4.498;2022-09-27T04:55:03;15.35;65.72
69944;DHT22;57257;48.408;-4.498;2022-09-27T04:57:28;15.39;65.82
69944;DHT22;57257;48.408;-4.498;2022-09-27T04:59:53;15.39;65.84
69944;DHT22;57257;48.408;-4.498;2022-09-27T05:02:19;15.42;65.71
69944;DHT22;57257;48.408;-4.498;2022-09-27T05:04:44;15.46;65.66
69944;DHT22;57257;48.408;-4.498;2022-09-27T05:07:10;15.50;65.68
69944;DHT22;57257;48.408;-4.498;2022-09-27T05:09:35;15.49;65.67
69944;DHT22;57257;48.408;-4.498;2022-09-27T05:12:00;15.47;65.71
69944;DHT22;57257;48.408;-4.498;2022-09-27T05:14:26;15.47;65.95
69944;DHT22;57257;48.408;-4.498;2022-09-27T05:16:53;15.47;65.91
69944;DHT22;57257;48.408;-4.498;2022-09-27T05:19:18;15.46;66.01
69944;DHT22;57257;48.408;-4.498;2022-09-27T05:21:44;15.49;65.97
69944;DHT22;57257;48.408;-4.498;2022-09-27T05:24:09;15.46;66.04
69944;DHT22;57257;48.408;-4.498;2022-09-27T05:26:34;15.46;66.11
69944;DHT22;57257;48.408;-4.498;2022-09-27T05:29:02;15.46;66.13
69944;DHT22;57257;48.408;-4.498;2022-09-27T05:31:27;15.43;66.08
69944;DHT22;57257;48.408;-4.498;2022-09-27T05:33:53;15.42;66.05
69944;DHT22;57257;48.408;-4.498;2022-09-27T05:36:19;15.40;65.98
69944;DHT22;57257;48.408;-4.498;2022-09-27T05:38:45;15.38;65.98
69944;DHT22;57257;48.408;-4.498;2022-09-27T05:41:10;15.36;66.00
69944;DHT22;57257;48.408;-4.498;2022-09-27T05:43:36;15.39;65.94
69944;DHT22;57257;48.408;-4.498;2022-09-27T05:46:02;15.35;65.90
69944;DHT22;57257;48.408;-4.498;2022-09-27T05:48:29;15.33;65.83
69944;DHT22;57257;48.408;-4.498;2022-09-27T05:50:55;15.30;65.85
69944;DHT22;57257;48.408;-4.498;2022-09-27T05:53:20;15.30;65.82
69944;DHT22;57257;48.408;-4.498;2022-09-27T05:55:46;15.28;65.76
69944;DHT22;57257;48.408;-4.498;2022-09-27T05:58:11;15.26;65.68
69944;DHT22;57257;48.408;-4.498;2022-09-27T06:00:40;15.25;65.75
69944;DHT22;57257;48.408;-4.498;2022-09-27T06:03:06;15.20;65.74
69944;DHT22;57257;48.408;-4.498;2022-09-27T06:05:36;15.19;65.70
69944;DHT22;57257;48.408;-4.498;2022-09-27T06:08:07;15.18;65.61
69944;DHT22;57257;48.408;-4.498;2022-09-27T06:10:33;15.16;65.62
69944;DHT22;57257;48.408;-4.498;2022-09-27T06:13:00;15.16;65.67
69944;DHT22;57257;48.408;-4.498;2022-09-27T06:15:27;15.12;65.65
69944;DHT22;57257;48.408;-4.498;2022-09-27T06:17:52;15.12;65.75
69944;DHT22;57257;48.408;-4.498;2022-09-27T06:20:18;15.10;65.73
69944;DHT22;57257;48.408;-4.498;2022-09-27T06:22:45;15.08;65.81
69944;DHT22;57257;48.408;-4.498;2022-09-27T06:25:10;15.12;65.77
69944;DHT22;57257;48.408;-4.498;2022-09-27T06:27:36;15.12;65.71
69944;DHT22;57257;48.408;-4.498;2022-09-27T06:30:03;15.08;65.74
69944;DHT22;57257;48.408;-4.498;2022-09-27T06:32:29;15.08;65.87
69944;DHT22;57257;48.408;-4.498;2022-09-27T06:34:54;15.12;65.91
69944;DHT22;57257;48.408;-4.498;2022-09-27T06:37:19;15.13;65.90
69944;DHT22;57257;48.408;-4.498;2022-09-27T06:39:49;15.23;65.89
69944;DHT22;57257;48.408;-4.498;2022-09-27T06:42:16;15.35;65.71
69944;DHT22;57257;48.408;-4.498;2022-09-27T06:44:42;15.38;65.61
69944;DHT22;57257;48.408;-4.498;2022-09-27T06:47:08;15.42;65.70
69944;DHT22;57257;48.408;-4.498;2022-09-27T06:49:33;15.46;65.61
69944;DHT22;57257;48.408;-4.498;2022-09-27T06:51:58;15.46;65.55
69944;DHT22;57257;48.408;-4.498;2022-09-27T06:54:24;15.49;65.66
69944;DHT22;57257;48.408;-4.498;2022-09-27T06:56:49;15.52;65.63
69944;DHT22;57257;48.408;-4.498;2022-09-27T06:59:15;15.54;65.60
69944;DHT22;57257;48.408;-4.498;2022-09-27T07:01:59;15.54;65.59
69944;DHT22;57257;48.408;-4.498;2022-09-27T07:04:24;15.57;65.54
69944;DHT22;57257;48.408;-4.498;2022-09-27T07:06:50;15.62;65.60
69944;DHT22;57257;48.408;-4.498;2022-09-27T07:09:15;15.71;65.63
69944;DHT22;57257;48.408;-4.498;2022-09-27T07:11:41;15.83;65.49
69944;DHT22;57257;48.408;-4.498;2022-09-27T07:14:09;15.90;65.36
69944;DHT22;57257;48.408;-4.498;2022-09-27T07:16:34;16.00;65.36
69944;DHT22;57257;48.408;-4.498;2022-09-27T07:19:01;16.16;65.28
69944;DHT22;57257;48.408;-4.498;2022-09-27T07:21:26;16.32;65.15
69944;DHT22;57257;48.408;-4.498;2022-09-27T07:23:52;16.45;64.98
69944;DHT22;57257;48.408;-4.498;2022-09-27T07:26:17;16.69;64.89
69944;DHT22;57257;48.408;-4.498;2022-09-27T07:28:43;16.92;64.61
69944;DHT22;57257;48.408;-4.498;2022-09-27T07:31:11;17.11;64.25
69944;DHT22;57257;48.408;-4.498;2022-09-27T07:33:37;17.22;64.08
69944;DHT22;57257;48.408;-4.498;2022-09-27T07:36:08;17.33;63.97
69944;DHT22;57257;48.408;-4.498;2022-09-27T07:38:35;17.43;63.90
69944;DHT22;57257;48.408;-4.498;2022-09-27T07:41:12;17.39;63.82
69944;DHT22;57257;48.408;-4.498;2022-09-27T07:43:40;17.32;63.82
69944;DHT22;57257;48.408;-4.498;2022-09-27T07:46:05;17.16;63.89
69944;DHT22;57257;48.408;-4.498;2022-09-27T07:48:32;17.05;64.17
69944;DHT22;57257;48.408;-4.498;2022-09-27T07:50:58;16.93;64.34
69944;DHT22;57257;48.408;-4.498;2022-09-27T07:53:24;16.92;64.46
69944;DHT22;57257;48.408;-4.498;2022-09-27T07:55:50;16.89;64.54
69944;DHT22;57257;48.408;-4.498;2022-09-27T07:58:17;17.03;64.86
69944;DHT22;57257;48.408;-4.498;2022-09-27T08:00:43;17.37;64.50
69944;DHT22;57257;48.408;-4.498;2022-09-27T08:03:14;17.57;64.03
69944;DHT22;57257;48.408;-4.498;2022-09-27T08:05:42;17.54;63.76
69944;DHT22;57257;48.408;-4.498;2022-09-27T08:08:08;17.47;63.78
69944;DHT22;57257;48.408;-4.498;2022-09-27T08:10:34;17.49;63.72
69944;DHT22;57257;48.408;-4.498;2022-09-27T08:13:00;17.57;63.65
69944;DHT22;57257;48.408;-4.498;2022-09-27T08:15:29;17.64;63.57
69944;DHT22;57257;48.408;-4.498;2022-09-27T08:17:55;17.70;63.49
69944;DHT22;57257;48.408;-4.498;2022-09-27T08:20:20;17.76;63.36
69944;DHT22;57257;48.408;-4.498;2022-09-27T08:22:46;17.74;63.39
69944;DHT22;57257;48.408;-4.498;2022-09-27T08:25:11;17.73;63.49
69944;DHT22;57257;48.408;-4.498;2022-09-27T08:27:38;17.64;63.66
69944;DHT22;57257;48.408;-4.498;2022-09-27T08:30:04;17.62;63.74
69944;DHT22;57257;48.408;-4.498;2022-09-27T08:32:29;17.63;63.72
69944;DHT22;57257;48.408;-4.498;2022-09-27T08:34:55;17.59;63.83
69944;DHT22;57257;48.408;-4.498;2022-09-27T08:37:21;17.57;63.95
69944;DHT22;57257;48.408;-4.498;2022-09-27T08:39:46;17.53;64.08
69944;DHT22;57257;48.408;-4.498;2022-09-27T08:42:22;17.54;64.29
69944;DHT22;57257;48.408;-4.498;2022-09-27T08:47:47;17.84;64.26
69944;DHT22;57257;48.408;-4.498;2022-09-27T08:50:23;18.17;63.96
69944;DHT22;57257;48.408;-4.498;2022-09-27T08:52:56;18.44;63.50
69944;DHT22;57257;48.408;-4.498;2022-09-27T08:58:08;19.06;62.50
69944;DHT22;57257;48.408;-4.498;2022-09-27T09:00:36;19.28;62.13
69944;DHT22;57257;48.408;-4.498;2022-09-27T09:03:02;19.36;61.79
69944;DHT22;57257;48.408;-4.498;2022-09-27T09:05:33;19.31;61.27
69944;DHT22;57257;48.408;-4.498;2022-09-27T09:10:52;19.10;61.55
69944;DHT22;57257;48.408;-4.498;2022-09-27T09:22:37;18.68;61.93
69944;DHT22;57257;48.408;-4.498;2022-09-27T09:33:49;18.51;62.35
69944;DHT22;57257;48.408;-4.498;2022-09-27T09:36:30;18.56;62.57
69944;DHT22;57257;48.408;-4.498;2022-09-27T09:39:32;18.62;62.40
69944;DHT22;57257;48.408;-4.498;2022-09-27T09:42:01;18.65;62.32
69944;DHT22;57257;48.408;-4.498;2022-09-27T09:47:12;18.56;62.15
69944;DHT22;57257;48.408;-4.498;2022-09-27T09:49:45;18.56;62.35
69944;DHT22;57257;48.408;-4.498;2022-09-27T09:52:16;18.62;62.63
69944;DHT22;57257;48.408;-4.498;2022-09-27T09:54:54;18.69;62.57
69944;DHT22;57257;48.408;-4.498;2022-09-27T09:57:29;18.72;62.77
69944;DHT22;57257;48.408;-4.498;2022-09-27T10:00:12;18.71;63.03
69944;DHT22;57257;48.408;-4.498;2022-09-27T10:02:39;18.65;63.43
69944;DHT22;57257;48.408;-4.498;2022-09-27T10:05:06;18.45;63.89
69944;DHT22;57257;48.408;-4.498;2022-09-27T10:07:36;18.31;64.64
69944;DHT22;57257;48.408;-4.498;2022-09-27T10:10:04;18.19;65.29
69944;DHT22;57257;48.408;-4.498;2022-09-27T10:12:31;18.24;65.79
69944;DHT22;57257;48.408;-4.498;2022-09-27T10:15:00;18.29;66.08
69944;DHT22;57257;48.408;-4.498;2022-09-27T10:17:40;18.35;66.34
69944;DHT22;57257;48.408;-4.498;2022-09-27T10:20:07;18.34;66.38
69944;DHT22;57257;48.408;-4.498;2022-09-27T10:22:43;18.32;66.52
69944;DHT22;57257;48.408;-4.498;2022-09-27T10:25:11;18.27;66.73
69944;DHT22;57257;48.408;-4.498;2022-09-27T10:27:44;18.17;67.10
69944;DHT22;57257;48.408;-4.498;2022-09-27T10:30:34;18.02;67.48
69944;DHT22;57257;48.408;-4.498;2022-09-27T10:33:06;17.91;67.48
69944;DHT22;57257;48.408;-4.498;2022-09-27T10:35:44;17.84;68.04
69944;DHT22;57257;48.408;-4.498;2022-09-27T10:38:21;17.86;68.20
69944;DHT22;57257;48.408;-4.498;2022-09-27T10:40:49;17.81;68.19
69944;DHT22;57257;48.408;-4.498;2022-09-27T10:43:28;17.77;68.40
69944;DHT22;57257;48.408;-4.498;2022-09-27T10:46:21;17.78;68.60
69944;DHT22;57257;48.408;-4.498;2022-09-27T10:49:07;17.87;68.76
69944;DHT22;57257;48.408;-4.498;2022-09-27T10:51:33;17.88;68.82
69944;DHT22;57257;48.408;-4.498;2022-09-27T10:53:59;17.94;69.03
69944;DHT22;57257;48.408;-4.498;2022-09-27T10:56:33;17.96;69.24
69944;DHT22;57257;48.408;-4.498;2022-09-27T10:59:00;18.00;69.32
69944;DHT22;57257;48.408;-4.498;2022-09-27T11:01:40;18.04;69.45
69944;DHT22;57257;48.408;-4.498;2022-09-27T11:04:19;18.09;69.43
69944;DHT22;57257;48.408;-4.498;2022-09-27T11:06:45;18.15;69.51
69944;DHT22;57257;48.408;-4.498;2022-09-27T11:09:19;18.22;69.66
69944;DHT22;57257;48.408;-4.498;2022-09-27T11:11:48;18.25;69.62
69944;DHT22;57257;48.408;-4.498;2022-09-27T11:14:21;18.25;69.76
69944;DHT22;57257;48.408;-4.498;2022-09-27T11:17:02;18.18;69.82
69944;DHT22;57257;48.408;-4.498;2022-09-27T11:28:37;18.35;70.25
69944;DHT22;57257;48.408;-4.498;2022-09-27T11:34:18;18.31;70.32
69944;DHT22;57257;48.408;-4.498;2022-09-27T11:40:00;18.29;70.73
69944;DHT22;57257;48.408;-4.498;2022-09-27T11:53:38;18.15;71.97
69944;DHT22;57257;48.408;-4.498;2022-09-27T11:59:35;18.22;72.47
69944;DHT22;57257;48.408;-4.498;2022-09-27T12:07:58;18.39;72.87
69944;DHT22;57257;48.408;-4.498;2022-09-27T12:10:24;18.41;73.15
69944;DHT22;57257;48.408;-4.498;2022-09-27T12:12:52;18.34;73.17
69944;DHT22;57257;48.408;-4.498;2022-09-27T12:15:21;18.31;73.26
69944;DHT22;57257;48.408;-4.498;2022-09-27T12:17:53;18.28;73.40
69944;DHT22;57257;48.408;-4.498;2022-09-27T12:20:39;18.24;73.84
69944;DHT22;57257;48.408;-4.498;2022-09-27T12:23:14;18.24;73.90
69944;DHT22;57257;48.408;-4.498;2022-09-27T12:25:42;18.22;73.93
69944;DHT22;57257;48.408;-4.498;2022-09-27T12:31:03;18.29;74.02
69944;DHT22;57257;48.408;-4.498;2022-09-27T12:33:47;18.37;74.04
69944;DHT22;57257;48.408;-4.498;2022-09-27T12:36:17;18.38;74.11
69944;DHT22;57257;48.408;-4.498;2022-09-27T12:38:57;18.35;74.27
69944;DHT22;57257;48.408;-4.498;2022-09-27T12:41:30;18.37;74.12
69944;DHT22;57257;48.408;-4.498;2022-09-27T12:43:58;18.39;74.20
69944;DHT22;57257;48.408;-4.498;2022-09-27T12:51:47;18.38;74.49
69944;DHT22;57257;48.408;-4.498;2022-09-27T13:02:22;18.45;74.79
69944;DHT22;57257;48.408;-4.498;2022-09-27T13:07:29;18.42;74.93
69944;DHT22;57257;48.408;-4.498;2022-09-27T13:10:15;18.41;75.11
69944;DHT22;57257;48.408;-4.498;2022-09-27T13:12:51;18.34;75.19
69944;DHT22;57257;48.408;-4.498;2022-09-27T13:23:02;18.22;75.74
69944;DHT22;57257;48.408;-4.498;2022-09-27T13:25:48;18.18;75.81
69944;DHT22;57257;48.408;-4.498;2022-09-27T13:31:17;18.12;76.10
69944;DHT22;57257;48.408;-4.498;2022-09-27T13:42:15;18.12;76.51
69944;DHT22;57257;48.408;-4.498;2022-09-27T13:49:37;18.02;76.81
69944;DHT22;57257;48.408;-4.498;2022-09-27T13:52:26;18.00;76.88
69944;DHT22;57257;48.408;-4.498;2022-09-27T13:54:58;18.00;76.95
69944;DHT22;57257;48.408;-4.498;2022-09-27T14:00:24;18.01;77.24
69944;DHT22;57257;48.408;-4.498;2022-09-27T14:05:56;18.01;77.17
69944;DHT22;57257;48.408;-4.498;2022-09-27T14:08:42;17.98;77.22
69944;DHT22;57257;48.408;-4.498;2022-09-27T14:11:15;17.97;77.28
69944;DHT22;57257;48.408;-4.498;2022-09-27T14:13:43;18.01;77.25
69944;DHT22;57257;48.408;-4.498;2022-09-27T14:16:14;18.02;77.25
69944;DHT22;57257;48.408;-4.498;2022-09-27T14:21:32;18.07;77.20
69944;DHT22;57257;48.408;-4.498;2022-09-27T14:26:46;18.12;77.05
69944;DHT22;57257;48.408;-4.498;2022-09-27T14:29:20;18.12;76.87
69944;DHT22;57257;48.408;-4.498;2022-09-27T14:32:01;18.09;76.96
69944;DHT22;57257;48.408;-4.498;2022-09-27T14:34:27;18.07;77.12
69944;DHT22;57257;48.408;-4.498;2022-09-27T14:36:53;18.05;77.24
69944;DHT22;57257;48.408;-4.498;2022-09-27T14:39:37;18.01;77.40
69944;DHT22;57257;48.408;-4.498;2022-09-27T14:42:15;18.01;77.40
69944;DHT22;57257;48.408;-4.498;2022-09-27T14:44:43;18.01;77.27
69944;DHT22;57257;48.408;-4.498;2022-09-27T14:47:20;18.00;77.35
69944;DHT22;57257;48.408;-4.498;2022-09-27T14:49:50;18.00;77.32
69944;DHT22;57257;48.408;-4.498;2022-09-27T14:52:22;17.98;77.34
69944;DHT22;57257;48.408;-4.498;2022-09-27T14:57:26;17.96;77.66
69944;DHT22;57257;48.408;-4.498;2022-09-27T14:59:52;18.00;77.54
69944;DHT22;57257;48.408;-4.498;2022-09-27T15:02:20;18.02;77.39
69944;DHT22;57257;48.408;-4.498;2022-09-27T15:04:48;18.00;77.39
69944;DHT22;57257;48.408;-4.498;2022-09-27T15:07:16;18.07;77.42
69944;DHT22;57257;48.408;-4.498;2022-09-27T15:09:42;17.97;77.42
69944;DHT22;57257;48.408;-4.498;2022-09-27T15:12:11;17.97;77.54
69944;DHT22;57257;48.408;-4.498;2022-09-27T15:14:39;17.93;77.76
69944;DHT22;57257;48.408;-4.498;2022-09-27T15:17:15;17.90;77.82
69944;DHT22;57257;48.408;-4.498;2022-09-27T15:19:55;17.94;77.83
69944;DHT22;57257;48.408;-4.498;2022-09-27T15:22:28;17.94;77.91
69944;DHT22;57257;48.408;-4.498;2022-09-27T15:25:04;17.98;77.91
69944;DHT22;57257;48.408;-4.498;2022-09-27T15:27:29;17.97;77.81
69944;DHT22;57257;48.408;-4.498;2022-09-27T15:29:56;18.00;77.75
69944;DHT22;57257;48.408;-4.498;2022-09-27T15:32:24;18.00;77.77
69944;DHT22;57257;48.408;-4.498;2022-09-27T15:34:50;18.00;77.79
69944;DHT22;57257;48.408;-4.498;2022-09-27T15:39:51;17.94;77.96
69944;DHT22;57257;48.408;-4.498;2022-09-27T15:42:17;17.94;77.96
69944;DHT22;57257;48.408;-4.498;2022-09-27T15:44:46;17.96;77.96
69944;DHT22;57257;48.408;-4.498;2022-09-27T15:49:57;17.93;78.00
69944;DHT22;57257;48.408;-4.498;2022-09-27T15:52:45;17.93;78.08
69944;DHT22;57257;48.408;-4.498;2022-09-27T15:55:12;17.90;78.06
69944;DHT22;57257;48.408;-4.498;2022-09-27T15:57:39;17.88;78.11
69944;DHT22;57257;48.408;-4.498;2022-09-27T16:00:06;17.88;78.19
69944;DHT22;57257;48.408;-4.498;2022-09-27T16:02:31;17.84;78.31
69944;DHT22;57257;48.408;-4.498;2022-09-27T16:04:57;17.81;78.37
69944;DHT22;57257;48.408;-4.498;2022-09-27T16:07:22;17.81;78.34
69944;DHT22;57257;48.408;-4.498;2022-09-27T16:09:48;17.81;78.34
69944;DHT22;57257;48.408;-4.498;2022-09-27T16:12:16;17.77;78.39
69944;DHT22;57257;48.408;-4.498;2022-09-27T16:14:41;17.71;78.45
69944;DHT22;57257;48.408;-4.498;2022-09-27T16:17:08;17.74;78.52
69944;DHT22;57257;48.408;-4.498;2022-09-27T16:19:34;17.71;78.48
69944;DHT22;57257;48.408;-4.498;2022-09-27T16:21:59;17.71;78.50
69944;DHT22;57257;48.408;-4.498;2022-09-27T16:24:28;17.67;78.55
69944;DHT22;57257;48.408;-4.498;2022-09-27T16:26:53;17.66;78.56
69944;DHT22;57257;48.408;-4.498;2022-09-27T16:29:19;17.67;78.55
69944;DHT22;57257;48.408;-4.498;2022-09-27T16:31:44;17.63;78.56
69944;DHT22;57257;48.408;-4.498;2022-09-27T16:34:10;17.63;78.61
69944;DHT22;57257;48.408;-4.498;2022-09-27T16:36:37;17.59;78.66
69944;DHT22;57257;48.408;-4.498;2022-09-27T16:39:04;17.57;78.77
69944;DHT22;57257;48.408;-4.498;2022-09-27T16:41:30;17.56;78.81
69944;DHT22;57257;48.408;-4.498;2022-09-27T16:43:57;17.51;78.90
69944;DHT22;57257;48.408;-4.498;2022-09-27T16:46:23;17.51;78.91
69944;DHT22;57257;48.408;-4.498;2022-09-27T16:48:49;17.49;78.93
69944;DHT22;57257;48.408;-4.498;2022-09-27T16:51:19;17.49;78.93
69944;DHT22;57257;48.408;-4.498;2022-09-27T16:54:05;17.44;78.94
69944;DHT22;57257;48.408;-4.498;2022-09-27T16:56:32;17.43;79.00
69944;DHT22;57257;48.408;-4.498;2022-09-27T16:58:59;17.40;78.92
69944;DHT22;57257;48.408;-4.498;2022-09-27T17:01:30;17.39;78.98
69944;DHT22;57257;48.408;-4.498;2022-09-27T17:03:56;17.36;78.94
69944;DHT22;57257;48.408;-4.498;2022-09-27T17:06:22;17.40;79.02
69944;DHT22;57257;48.408;-4.498;2022-09-27T17:08:47;17.34;78.91
69944;DHT22;57257;48.408;-4.498;2022-09-27T17:11:15;17.36;78.92
69944;DHT22;57257;48.408;-4.498;2022-09-27T17:13:43;17.33;78.91
69944;DHT22;57257;48.408;-4.498;2022-09-27T17:16:10;17.33;78.84
69944;DHT22;57257;48.408;-4.498;2022-09-27T17:18:37;17.32;78.85
69944;DHT22;57257;48.408;-4.498;2022-09-27T17:21:04;17.30;78.76
69944;DHT22;57257;48.408;-4.498;2022-09-27T17:23:30;17.32;78.82
69944;DHT22;57257;48.408;-4.498;2022-09-27T17:26:06;17.33;78.76
69944;DHT22;57257;48.408;-4.498;2022-09-27T17:28:33;17.33;78.77
69944;DHT22;57257;48.408;-4.498;2022-09-27T17:31:07;17.30;78.83
69944;DHT22;57257;48.408;-4.498;2022-09-27T17:33:36;17.26;78.87
69944;DHT22;57257;48.408;-4.498;2022-09-27T17:36:06;17.26;78.91
69944;DHT22;57257;48.408;-4.498;2022-09-27T17:38:33;17.24;78.94
69944;DHT22;57257;48.408;-4.498;2022-09-27T17:41:02;17.24;79.01
69944;DHT22;57257;48.408;-4.498;2022-09-27T17:43:28;17.23;78.98
69944;DHT22;57257;48.408;-4.498;2022-09-27T17:46:18;17.22;79.01
69944;DHT22;57257;48.408;-4.498;2022-09-27T17:48:44;17.19;79.08
69944;DHT22;57257;48.408;-4.498;2022-09-27T17:51:28;17.15;79.12
69944;DHT22;57257;48.408;-4.498;2022-09-27T17:53:54;17.11;79.19
69944;DHT22;57257;48.408;-4.498;2022-09-27T17:56:19;17.11;79.22
69944;DHT22;57257;48.408;-4.498;2022-09-27T17:58:48;17.09;79.28
69944;DHT22;57257;48.408;-4.498;2022-09-27T18:01:14;17.08;79.22
69944;DHT22;57257;48.408;-4.498;2022-09-27T18:03:40;17.05;79.27
69944;DHT22;57257;48.408;-4.498;2022-09-27T18:06:07;17.03;79.27
69944;DHT22;57257;48.408;-4.498;2022-09-27T18:08:33;17.02;79.30
69944;DHT22;57257;48.408;-4.498;2022-09-27T18:11:06;16.99;79.28
69944;DHT22;57257;48.408;-4.498;2022-09-27T18:13:32;16.99;79.21
69944;DHT22;57257;48.408;-4.498;2022-09-27T18:16:08;17.01;79.15
69944;DHT22;57257;48.408;-4.498;2022-09-27T18:18:36;17.03;79.08